Flugplatz Kamenz

Für EDCM sind keine METAR/TAF Berichte vorhanden.
Es werden die Flugwettermeldungen vom Flugplatz Dresden in 30 km Entfernung angezeigt.

Bericht für EDDC

vom 22.03. um 22:20 UTC

Wind 5 kt aus 160°

Sichtweite 10 km oder mehr

gute Sicht, keine Wolken < 5000 ft, keine CB, keine Wettererscheinungen (CAVOK)

Temperatur 10.0°C

Taupunkt 8.0°C

Luftfeuchtigkeit 87%

Luftdruck 1028 hPa

EDDC 222220Z 16005KT CAVOK 10/08 Q1028

Prognose für EDDC

vom 22.03. um 17:00 UTC

Zwischen 18:00 UTC und 09:00 UTC

Wind 7 kt aus 160°

Sichtweite 10 km oder mehr

keine signifikanten Wettererscheinungen

keine Wolken


Am 23.03. zwischen 09:00 und 12:00 UTC übergehend zu

Wind 8 kt aus 300°

Sichtweite 10 km oder mehr

keine signifikanten Wettererscheinungen

keine Wolken

TAF EDDC 221700Z 2218/2318 16007KT CAVOK BECMG 2309/2312 30008KT
Impressum